Jasper Arrow — C6UH9 — position and weather

sailwx.info

Track history (hours):
 
Tides and Currents Weather Stations Pressure Air Temp Water Temp Dewpoint Dewpoint Depression Visibility Wind Speed Wind Dir Waves Ship Positions

Jasper Arrow

Last reported at 2017-Dec-17 10:44 UTC. Time now 2017-Dec-18 22:33 UTC.
Position N 34°01' E 136°44'.

Length 200 m; draft 8.4 m.

Type: Cargo ship. MMSI: 311919000.

Date/timePositionNaut miles runAvg speedWind from/ knotsBaromVisibWave heightAir tempDewpointWater temp
2017-Dec-17 10:44N 34°01' E 136°44'3317.1
2017-Dec-17 08:49N 34°30' E 137°01'3 9.4
2017-Dec-17 08:30N 34°33' E 137°01'713.8
2017-Dec-17 08:00N 34°37' E 136°54'816.3
2017-Dec-17 07:31N 34°44' E 136°48'816.3
2017-Dec-17 07:00N 34°51' E 136°46'815.2
2017-Dec-17 06:30N 34°59' E 136°48'4 8.6
2017-Dec-17 06:00N 35°03' E 136°50'0 0.2
2017-Dec-17 05:30N 35°03' E 136°50'0 0.0
2017-Dec-17 05:00N 35°03' E 136°50'0 0.0
2017-Dec-17 04:30N 35°03' E 136°50'0 0.0
2017-Dec-17 04:00N 35°03' E 136°50'0 0.0
2017-Dec-17 03:30N 35°03' E 136°50'0 0.0
2017-Dec-17 03:00N 35°03' E 136°50'0 0.0
2017-Dec-17 02:30N 35°03' E 136°50'0 0.0
2017-Dec-17 02:00N 35°03' E 136°50'0 0.0
2017-Dec-17 01:30N 35°03' E 136°50'0 0.0
2017-Dec-17 01:00N 35°03' E 136°50'0 0.0
2017-Dec-17 00:30N 35°03' E 136°50'0 0.0
2017-Dec-17 00:00N 35°03' E 136°50'0 0.0
2017-Dec-16 23:30N 35°03' E 136°50'0 0.0
2017-Dec-16 23:00N 35°03' E 136°50'0 0.0
2017-Dec-16 22:30N 35°03' E 136°50'0 0.3
2017-Dec-16 22:00N 35°03' E 136°50'4 7.5
2017-Dec-16 21:31N 34°59' E 136°49'713.2
2017-Dec-16 21:00N 34°53' E 136°46'814.9
2017-Dec-16 20:30N 34°46' E 136°48'2510.8
2017-Dec-16 18:09N 34°29' E 137°12'212.2
2017-Dec-16 18:00N 34°29' E 137°14'1116.8
2017-Dec-16 17:21N 34°29' E 137°27'718.9
2017-Dec-16 17:00N 34°29' E 137°35'1018.2
2017-Dec-16 16:27N 34°30' E 137°47'817.9
2017-Dec-16 15:59N 34°29' E 137°57'1017.3
2017-Dec-16 15:24N 34°28' E 138°09'716.6
2017-Dec-16 14:58N 34°29' E 138°18'917.4
2017-Dec-16 14:28N 34°29' E 138°28'917.8
2017-Dec-16 13:57N 34°30' E 138°40'817.2
2017-Dec-16 13:30N 34°31' E 138°49'816.5
2017-Dec-16 13:00N 34°33' E 138°59'916.4
2017-Dec-16 12:28N 34°39' E 139°07'918.1
2017-Dec-16 11:57N 34°46' E 139°13'817.3
2017-Dec-16 11:31N 34°52' E 139°20'816.8
2017-Dec-16 11:00N 34°55' E 139°29'917.8
2017-Dec-16 10:31N 35°01' E 139°37'816.2
2017-Dec-16 10:00N 35°07' E 139°44'611.6
2017-Dec-16 09:30N 35°12' E 139°46'510.4
2017-Dec-16 09:00N 35°17' E 139°45'612.7
2017-Dec-16 08:30N 35°24' E 139°43'4 7.7
2017-Dec-16 08:00N 35°27' E 139°41'0 0.0
2017-Dec-16 07:30N 35°27' E 139°41'0 0.0
2017-Dec-16 07:00N 35°27' E 139°41'0 0.0
2017-Dec-16 06:30N 35°27' E 139°41'0 0.0
2017-Dec-16 06:00N 35°27' E 139°41'0 0.0
2017-Dec-16 05:30N 35°27' E 139°41'0 0.0
2017-Dec-16 05:00N 35°27' E 139°41'0 0.0
2017-Dec-16 04:30N 35°27' E 139°41'0 0.0
2017-Dec-16 04:00N 35°27' E 139°41'0 0.0
2017-Dec-16 03:30N 35°27' E 139°41'0 0.0
2017-Dec-16 03:00N 35°27' E 139°41'0 0.0
2017-Dec-16 02:30N 35°27' E 139°41'0 0.0
2017-Dec-16 02:00N 35°27' E 139°41'0 0.0
2017-Dec-16 01:30N 35°27' E 139°41'0 0.0
2017-Dec-16 01:00N 35°27' E 139°41'0 0.0
2017-Dec-16 00:30N 35°27' E 139°41'0 0.0
2017-Dec-16 00:00N 35°27' E 139°41'0 0.0
2017-Dec-15 23:30N 35°27' E 139°41'0 0.5
2017-Dec-15 23:01N 35°27' E 139°41'2 4.6
2017-Dec-15 22:31N 35°25' E 139°43'4 7.3
2017-Dec-15 22:01N 35°22' E 139°43'612.2
2017-Dec-15 21:30N 35°16' E 139°46'612.4
2017-Dec-15 21:00N 35°10' E 139°47'4 8.4
2017-Dec-15 20:30N 35°06' E 139°45'714.7
2017-Dec-15 20:01N 35°01' E 139°38'816.2
2017-Dec-15 19:30N 34°56' E 139°30'916.9
2017-Dec-15 19:00N 34°51' E 139°22'917.5
2017-Dec-15 18:30N 34°45' E 139°14'917.3
2017-Dec-15 18:00N 34°38' E 139°08'917.7
2017-Dec-15 17:30N 34°31' E 139°02'917.5
2017-Dec-15 17:00N 34°25' E 138°54'917.1
2017-Dec-15 16:30N 34°21' E 138°45'917.4
2017-Dec-15 16:00N 34°17' E 138°35'917.4
2017-Dec-15 15:30N 34°13' E 138°26'917.6
2017-Dec-15 15:00N 34°10' E 138°16'32716.0
2017-Dec-14 18:31N 33°44' E 131°43'917.3
2017-Dec-14 18:00N 33°47' E 131°33'918.0
2017-Dec-14 17:30N 33°49' E 131°23'917.4
2017-Dec-14 17:01N 33°51' E 131°12'815.6
2017-Dec-14 16:30N 33°55' E 131°05'5 9.5
2017-Dec-14 16:00N 33°59' E 131°00'7 6.6
2017-Dec-14 15:00N 33°60' E 130°52'5 9.9
2017-Dec-14 14:30N 34°03' E 130°48'611.5
2017-Dec-14 14:00N 34°03' E 130°41'611.6
2017-Dec-14 13:30N 34°02' E 130°34'611.7
2017-Dec-14 13:00N 34°01' E 130°27'612.3
2017-Dec-14 12:30N 34°00' E 130°19'  
Track history (hours):
 
Tides and Currents Weather Stations Pressure Air Temp Water Temp Dewpoint Dewpoint Depression Visibility Wind Speed Wind Dir Waves Ship Positions

Jasper Arrow

Last reported at 2017-Dec-17 10:44 UTC. Time now 2017-Dec-18 22:33 UTC.
Position N 34°01' E 136°44'.

Length 200 m; draft 8.4 m.

Type: Cargo ship. MMSI: 311919000.

Date/timePositionNaut miles runAvg speedWind from/ knotsBaromVisibWave heightAir tempDewpointWater temp
2017-Dec-17 10:44N 34°01' E 136°44'3317.1
2017-Dec-17 08:49N 34°30' E 137°01'3 9.4
2017-Dec-17 08:30N 34°33' E 137°01'713.8
2017-Dec-17 08:00N 34°37' E 136°54'816.3
2017-Dec-17 07:31N 34°44' E 136°48'816.3
2017-Dec-17 07:00N 34°51' E 136°46'815.2
2017-Dec-17 06:30N 34°59' E 136°48'4 8.6
2017-Dec-17 06:00N 35°03' E 136°50'0 0.2
2017-Dec-17 05:30N 35°03' E 136°50'0 0.0
2017-Dec-17 05:00N 35°03' E 136°50'0 0.0
2017-Dec-17 04:30N 35°03' E 136°50'0 0.0
2017-Dec-17 04:00N 35°03' E 136°50'0 0.0
2017-Dec-17 03:30N 35°03' E 136°50'0 0.0
2017-Dec-17 03:00N 35°03' E 136°50'0 0.0
2017-Dec-17 02:30N 35°03' E 136°50'0 0.0
2017-Dec-17 02:00N 35°03' E 136°50'0 0.0
2017-Dec-17 01:30N 35°03' E 136°50'0 0.0
2017-Dec-17 01:00N 35°03' E 136°50'0 0.0
2017-Dec-17 00:30N 35°03' E 136°50'0 0.0
2017-Dec-17 00:00N 35°03' E 136°50'0 0.0
2017-Dec-16 23:30N 35°03' E 136°50'0 0.0
2017-Dec-16 23:00N 35°03' E 136°50'0 0.0
2017-Dec-16 22:30N 35°03' E 136°50'0 0.3
2017-Dec-16 22:00N 35°03' E 136°50'4 7.5
2017-Dec-16 21:31N 34°59' E 136°49'713.2
2017-Dec-16 21:00N 34°53' E 136°46'814.9
2017-Dec-16 20:30N 34°46' E 136°48'2510.8
2017-Dec-16 18:09N 34°29' E 137°12'212.2
2017-Dec-16 18:00N 34°29' E 137°14'1116.8
2017-Dec-16 17:21N 34°29' E 137°27'718.9
2017-Dec-16 17:00N 34°29' E 137°35'1018.2
2017-Dec-16 16:27N 34°30' E 137°47'817.9
2017-Dec-16 15:59N 34°29' E 137°57'1017.3
2017-Dec-16 15:24N 34°28' E 138°09'716.6
2017-Dec-16 14:58N 34°29' E 138°18'917.4
2017-Dec-16 14:28N 34°29' E 138°28'917.8
2017-Dec-16 13:57N 34°30' E 138°40'817.2
2017-Dec-16 13:30N 34°31' E 138°49'816.5
2017-Dec-16 13:00N 34°33' E 138°59'916.4
2017-Dec-16 12:28N 34°39' E 139°07'918.1
2017-Dec-16 11:57N 34°46' E 139°13'817.3
2017-Dec-16 11:31N 34°52' E 139°20'816.8
2017-Dec-16 11:00N 34°55' E 139°29'917.8
2017-Dec-16 10:31N 35°01' E 139°37'816.2
2017-Dec-16 10:00N 35°07' E 139°44'611.6
2017-Dec-16 09:30N 35°12' E 139°46'510.4
2017-Dec-16 09:00N 35°17' E 139°45'612.7
2017-Dec-16 08:30N 35°24' E 139°43'4 7.7
2017-Dec-16 08:00N 35°27' E 139°41'0 0.0
2017-Dec-16 07:30N 35°27' E 139°41'0 0.0
2017-Dec-16 07:00N 35°27' E 139°41'0 0.0
2017-Dec-16 06:30N 35°27' E 139°41'0 0.0
2017-Dec-16 06:00N 35°27' E 139°41'0 0.0
2017-Dec-16 05:30N 35°27' E 139°41'0 0.0
2017-Dec-16 05:00N 35°27' E 139°41'0 0.0
2017-Dec-16 04:30N 35°27' E 139°41'0 0.0
2017-Dec-16 04:00N 35°27' E 139°41'0 0.0
2017-Dec-16 03:30N 35°27' E 139°41'0 0.0
2017-Dec-16 03:00N 35°27' E 139°41'0 0.0
2017-Dec-16 02:30N 35°27' E 139°41'0 0.0
2017-Dec-16 02:00N 35°27' E 139°41'0 0.0
2017-Dec-16 01:30N 35°27' E 139°41'0 0.0
2017-Dec-16 01:00N 35°27' E 139°41'0 0.0
2017-Dec-16 00:30N 35°27' E 139°41'0 0.0
2017-Dec-16 00:00N 35°27' E 139°41'0 0.0
2017-Dec-15 23:30N 35°27' E 139°41'0 0.5
2017-Dec-15 23:01N 35°27' E 139°41'2 4.6
2017-Dec-15 22:31N 35°25' E 139°43'4 7.3
2017-Dec-15 22:01N 35°22' E 139°43'612.2
2017-Dec-15 21:30N 35°16' E 139°46'612.4
2017-Dec-15 21:00N 35°10' E 139°47'4 8.4
2017-Dec-15 20:30N 35°06' E 139°45'714.7
2017-Dec-15 20:01N 35°01' E 139°38'816.2
2017-Dec-15 19:30N 34°56' E 139°30'916.9
2017-Dec-15 19:00N 34°51' E 139°22'917.5
2017-Dec-15 18:30N 34°45' E 139°14'917.3
2017-Dec-15 18:00N 34°38' E 139°08'917.7
2017-Dec-15 17:30N 34°31' E 139°02'917.5
2017-Dec-15 17:00N 34°25' E 138°54'917.1
2017-Dec-15 16:30N 34°21' E 138°45'917.4
2017-Dec-15 16:00N 34°17' E 138°35'917.4
2017-Dec-15 15:30N 34°13' E 138°26'917.6
2017-Dec-15 15:00N 34°10' E 138°16'32716.0
2017-Dec-14 18:31N 33°44' E 131°43'917.3
2017-Dec-14 18:00N 33°47' E 131°33'918.0
2017-Dec-14 17:30N 33°49' E 131°23'917.4
2017-Dec-14 17:01N 33°51' E 131°12'815.6
2017-Dec-14 16:30N 33°55' E 131°05'5 9.5
2017-Dec-14 16:00N 33°59' E 131°00'7 6.6
2017-Dec-14 15:00N 33°60' E 130°52'5 9.9
2017-Dec-14 14:30N 34°03' E 130°48'611.5
2017-Dec-14 14:00N 34°03' E 130°41'611.6
2017-Dec-14 13:30N 34°02' E 130°34'611.7
2017-Dec-14 13:00N 34°01' E 130°27'612.3
2017-Dec-14 12:30N 34°00' E 130°19'  

Dump ship's entire track history